createdAt,value
2023-05-10T00:00:05.115Z,3.02
2023-05-10T00:01:07.884Z,2.78
2023-05-10T00:02:10.614Z,2.82
2023-05-10T00:03:13.316Z,2.88
2023-05-10T00:04:16.041Z,3.01
2023-05-10T00:05:18.909Z,3.46
2023-05-10T00:06:21.558Z,3.04
2023-05-10T00:07:24.213Z,3.14
2023-05-10T00:08:26.904Z,2.88
2023-05-10T00:09:29.456Z,3.09
2023-05-10T00:10:32.252Z,2.69
2023-05-10T00:11:34.906Z,3.62
2023-05-10T00:12:37.567Z,3.22
2023-05-10T00:13:40.260Z,3.02
2023-05-10T00:14:42.908Z,3.72
2023-05-10T00:15:45.478Z,2.50
2023-05-10T00:16:48.214Z,2.49
2023-05-10T00:17:51.078Z,2.73
2023-05-10T00:18:53.890Z,3.13
2023-05-10T00:19:56.557Z,2.87
2023-05-10T00:20:59.230Z,2.93
2023-05-10T00:22:01.893Z,2.78
2023-05-10T00:23:04.664Z,2.54
2023-05-10T00:24:07.443Z,2.27
2023-05-10T00:25:10.252Z,2.52
2023-05-10T00:26:12.789Z,2.71
2023-05-10T00:27:15.470Z,1.98
2023-05-10T00:28:18.124Z,2.79
2023-05-10T00:29:20.893Z,2.52
2023-05-10T00:30:23.568Z,2.31
2023-05-10T00:31:26.255Z,2.10
2023-05-10T00:32:28.839Z,2.51
2023-05-10T00:33:31.462Z,2.41
2023-05-10T00:34:34.140Z,2.34
2023-05-10T00:35:36.920Z,2.29
2023-05-10T00:36:39.589Z,2.18
2023-05-10T00:37:42.365Z,2.47
2023-05-10T00:38:45.030Z,1.95
2023-05-10T00:39:47.697Z,2.22
2023-05-10T00:40:50.567Z,2.96
2023-05-10T00:41:53.237Z,2.46
2023-05-10T00:42:56.020Z,2.91
2023-05-10T00:43:58.809Z,2.62
2023-05-10T00:45:01.561Z,2.20
2023-05-10T00:46:04.344Z,2.25
2023-05-10T00:47:07.208Z,2.14
2023-05-10T00:48:10.077Z,1.91
2023-05-10T00:49:12.966Z,1.80
2023-05-10T00:50:16.055Z,1.97
2023-05-10T00:51:19.111Z,2.48
2023-05-10T00:52:22.000Z,2.02
2023-05-10T00:53:24.654Z,1.79
2023-05-10T00:54:27.525Z,2.15
2023-05-10T00:55:30.308Z,2.08
2023-05-10T00:56:33.178Z,2.35
2023-05-10T00:57:36.159Z,2.02
2023-05-10T00:58:39.038Z,2.36
2023-05-10T00:59:42.006Z,1.78
2023-05-10T01:00:45.007Z,1.81
2023-05-10T01:01:47.878Z,2.32
2023-05-10T01:02:51.066Z,2.10
2023-05-10T01:03:54.020Z,1.98
2023-05-10T01:04:56.912Z,2.00
2023-05-10T01:05:59.773Z,1.82
2023-05-10T01:07:02.549Z,2.02
2023-05-10T01:08:05.420Z,1.68
2023-05-10T01:09:08.289Z,2.25
2023-05-10T01:10:11.094Z,2.21
2023-05-10T01:11:13.850Z,2.05
2023-05-10T01:12:16.739Z,1.85
2023-05-10T01:13:19.627Z,1.82
2023-05-10T01:14:22.589Z,1.93
2023-05-10T01:15:25.554Z,1.88
2023-05-10T01:16:28.491Z,1.72
2023-05-10T01:17:31.424Z,1.68
2023-05-10T01:18:34.272Z,1.69
2023-05-10T01:19:37.137Z,1.95
2023-05-10T01:20:40.023Z,1.88
2023-05-10T01:21:43.005Z,1.94
2023-05-10T01:22:45.781Z,2.02
2023-05-10T01:23:48.642Z,2.02
2023-05-10T01:24:51.620Z,2.18
2023-05-10T01:25:54.398Z,1.88
2023-05-10T01:26:57.163Z,1.73
2023-05-10T01:28:00.243Z,2.02
2023-05-10T01:29:03.231Z,2.05
2023-05-10T01:30:15.467Z,2.21
2023-05-10T01:31:10.676Z,1.94
2023-05-10T01:32:13.486Z,1.92
2023-05-10T01:33:16.372Z,1.97
2023-05-10T01:34:19.332Z,1.63
2023-05-10T01:35:22.211Z,1.68
2023-05-10T01:36:25.090Z,1.81
2023-05-10T01:37:27.753Z,1.52
2023-05-10T01:38:30.729Z,1.53
2023-05-10T01:39:33.400Z,1.53
2023-05-10T01:40:36.282Z,1.67
2023-05-10T01:41:38.943Z,1.75
2023-05-10T01:42:41.524Z,1.68
2023-05-10T01:43:44.178Z,1.67
2023-05-10T01:44:46.761Z,1.97
2023-05-10T01:45:49.361Z,1.72
2023-05-10T01:46:52.020Z,1.58
2023-05-10T01:47:54.689Z,1.42
2023-05-10T01:48:57.216Z,1.61
2023-05-10T01:49:59.791Z,1.62
2023-05-10T01:51:02.668Z,1.54
2023-05-10T01:52:05.437Z,1.78
2023-05-10T01:53:08.404Z,1.90
2023-05-10T01:54:10.979Z,1.52
2023-05-10T01:55:13.566Z,1.76
2023-05-10T01:56:16.411Z,1.63
2023-05-10T01:57:19.197Z,1.48
2023-05-10T01:58:21.866Z,1.55
2023-05-10T01:59:24.434Z,1.49
2023-05-10T02:00:27.409Z,1.61
2023-05-10T02:01:30.002Z,1.37
2023-05-10T02:02:32.690Z,1.36
2023-05-10T02:03:35.338Z,1.55
2023-05-10T02:04:37.989Z,1.43
2023-05-10T02:05:40.554Z,1.52
2023-05-10T02:06:43.215Z,1.72
2023-05-10T02:07:45.997Z,1.81
2023-05-10T02:08:48.869Z,1.78
2023-05-10T02:09:51.638Z,1.45
2023-05-10T02:10:54.620Z,1.45
2023-05-10T02:11:57.497Z,1.68
2023-05-10T02:13:00.387Z,1.77
2023-05-10T02:14:03.248Z,1.92
2023-05-10T02:15:06.116Z,1.55
2023-05-10T02:16:08.930Z,1.71
2023-05-10T02:17:11.978Z,1.78
2023-05-10T02:18:14.536Z,1.75
2023-05-10T02:19:17.426Z,1.83
2023-05-10T02:20:20.518Z,1.69
2023-05-10T02:21:23.575Z,1.52
2023-05-10T02:22:26.379Z,1.38
2023-05-10T02:23:29.215Z,1.49
2023-05-10T02:24:32.001Z,1.66
2023-05-10T02:25:34.774Z,2.35
2023-05-10T02:26:37.631Z,2.02
2023-05-10T02:27:40.513Z,1.47
2023-05-10T02:28:43.283Z,1.73
2023-05-10T02:29:46.265Z,1.61
2023-05-10T02:30:49.038Z,1.80
2023-05-10T02:31:51.958Z,1.86
2023-05-10T02:32:54.817Z,2.05
2023-05-10T02:33:57.656Z,2.00
2023-05-10T02:35:00.550Z,1.90
2023-05-10T02:36:03.409Z,1.75
2023-05-10T02:37:06.290Z,1.88
2023-05-10T02:38:09.168Z,1.71
2023-05-10T02:39:12.034Z,1.68
2023-05-10T02:40:15.140Z,1.75
2023-05-10T02:41:17.893Z,1.73
2023-05-10T02:42:20.464Z,1.81
2023-05-10T02:43:23.022Z,1.78
2023-05-10T02:44:25.688Z,2.19
2023-05-10T02:45:28.355Z,1.85
2023-05-10T02:46:31.086Z,2.00
2023-05-10T02:47:33.737Z,1.89
2023-05-10T02:48:36.592Z,1.81
2023-05-10T02:49:39.450Z,1.78
2023-05-10T02:50:42.318Z,1.93
2023-05-10T02:51:45.196Z,1.97
2023-05-10T02:52:47.976Z,1.82
2023-05-10T02:53:50.954Z,1.88
2023-05-10T02:54:53.815Z,2.05
2023-05-10T02:55:56.695Z,1.93
2023-05-10T02:56:59.667Z,2.00
2023-05-10T02:58:02.495Z,1.93
2023-05-10T02:59:05.312Z,2.16
2023-05-10T03:00:08.198Z,2.16
2023-05-10T03:01:11.087Z,1.85
2023-05-10T03:02:13.947Z,2.05
2023-05-10T03:03:16.622Z,1.89
2023-05-10T03:04:19.237Z,1.96
2023-05-10T03:05:21.855Z,1.91
2023-05-10T03:06:24.427Z,2.05
2023-05-10T03:07:27.112Z,2.12
2023-05-10T03:08:29.673Z,1.83
2023-05-10T03:09:32.454Z,1.71
2023-05-10T03:10:34.893Z,1.63
2023-05-10T03:11:37.461Z,1.61
2023-05-10T03:12:40.128Z,1.60
2023-05-10T03:13:42.805Z,1.52
2023-05-10T03:14:45.268Z,1.34
2023-05-10T03:15:47.967Z,1.38
2023-05-10T03:16:50.610Z,1.78
2023-05-10T03:17:53.313Z,1.75
2023-05-10T03:18:56.051Z,1.72
2023-05-10T03:19:58.758Z,1.64
2023-05-10T03:21:02.196Z,1.81
2023-05-10T03:22:05.168Z,1.59
2023-05-10T03:23:08.154Z,1.74
2023-05-10T03:24:11.633Z,1.92
2023-05-10T03:25:15.023Z,1.82
2023-05-10T03:26:18.222Z,1.85
2023-05-10T03:27:21.303Z,1.72
2023-05-10T03:28:24.664Z,1.83
2023-05-10T03:29:27.956Z,1.62
2023-05-10T03:30:31.033Z,1.81
2023-05-10T03:31:34.298Z,1.42
2023-05-10T03:32:37.233Z,2.00
2023-05-10T03:33:40.068Z,1.85
2023-05-10T03:34:43.356Z,1.56
2023-05-10T03:35:46.528Z,1.75
2023-05-10T03:36:49.713Z,1.88
2023-05-10T03:37:52.490Z,1.82
2023-05-10T03:38:55.360Z,2.12
2023-05-10T03:39:58.550Z,1.86
2023-05-10T03:41:00.871Z,1.70
2023-05-10T03:42:03.678Z,2.02
2023-05-10T03:43:06.565Z,1.92
2023-05-10T03:44:09.837Z,2.02
2023-05-10T03:45:12.913Z,1.66
2023-05-10T03:46:15.922Z,1.69
2023-05-10T03:47:18.979Z,1.82
2023-05-10T03:48:21.956Z,1.89
2023-05-10T03:49:24.818Z,1.92
2023-05-10T03:50:27.821Z,2.02
2023-05-10T03:51:30.777Z,2.08
2023-05-10T03:52:33.854Z,2.58
2023-05-10T03:53:37.155Z,2.05
2023-05-10T03:54:40.336Z,1.94
2023-05-10T03:55:43.651Z,1.72
2023-05-10T03:56:46.788Z,1.97
2023-05-10T03:57:49.979Z,2.01
2023-05-10T03:58:53.254Z,2.15
2023-05-10T03:59:56.537Z,1.98
2023-05-10T04:00:59.618Z,1.78
2023-05-10T04:02:02.928Z,1.92
2023-05-10T04:03:06.259Z,2.06
2023-05-10T04:04:09.420Z,2.42
2023-05-10T04:05:12.659Z,2.05
2023-05-10T04:06:15.883Z,1.88
2023-05-10T04:07:18.914Z,1.96
2023-05-10T04:08:22.305Z,1.83
2023-05-10T04:09:25.491Z,1.92
2023-05-10T04:10:28.772Z,1.95
2023-05-10T04:11:32.160Z,1.72
2023-05-10T04:12:35.448Z,2.06
2023-05-10T04:13:38.632Z,1.83
2023-05-10T04:14:41.598Z,1.79
2023-05-10T04:15:45.093Z,1.77
2023-05-10T04:16:48.507Z,1.59
2023-05-10T04:17:51.606Z,1.88
2023-05-10T04:18:55.040Z,1.85
2023-05-10T04:19:58.126Z,1.81
2023-05-10T04:21:01.104Z,1.91
2023-05-10T04:22:04.287Z,1.92
2023-05-10T04:23:07.270Z,1.46
2023-05-10T04:24:10.504Z,1.75
2023-05-10T04:25:13.741Z,1.48
2023-05-10T04:26:16.904Z,1.73
2023-05-10T04:27:20.088Z,1.72
2023-05-10T04:28:23.162Z,1.70
2023-05-10T04:29:26.446Z,1.74
2023-05-10T04:30:29.630Z,2.21
2023-05-10T04:31:33.454Z,1.77
2023-05-10T04:32:37.088Z,1.99
2023-05-10T04:33:40.099Z,1.92
2023-05-10T04:34:43.073Z,1.91
2023-05-10T04:35:45.970Z,1.84
2023-05-10T04:36:48.720Z,1.90
2023-05-10T04:37:51.692Z,2.12
2023-05-10T04:38:54.776Z,1.89
2023-05-10T04:39:57.651Z,2.04
2023-05-10T04:41:00.535Z,1.96
2023-05-10T04:42:03.298Z,2.11
2023-05-10T04:43:06.072Z,2.09
2023-05-10T04:44:08.944Z,2.12
2023-05-10T04:45:12.132Z,1.83
2023-05-10T04:46:15.256Z,1.90
2023-05-10T04:47:18.396Z,1.85
2023-05-10T04:48:21.773Z,1.95
2023-05-10T04:49:24.852Z,1.83
2023-05-10T04:50:27.933Z,1.93
2023-05-10T04:51:31.022Z,2.14
2023-05-10T04:52:34.161Z,1.83
2023-05-10T04:53:37.282Z,1.92
2023-05-10T04:54:40.576Z,1.92
2023-05-10T04:55:43.847Z,1.87
2023-05-10T04:56:47.033Z,1.96
2023-05-10T04:57:50.211Z,1.69
2023-05-10T04:58:53.905Z,1.85
2023-05-10T04:59:57.083Z,1.65
2023-05-10T05:01:00.060Z,1.88
2023-05-10T05:02:03.181Z,2.07
2023-05-10T05:03:06.491Z,1.75
2023-05-10T05:04:09.819Z,1.72
2023-05-10T05:05:12.792Z,2.21
2023-05-10T05:06:15.763Z,2.05
2023-05-10T05:07:18.845Z,2.29
2023-05-10T05:08:21.820Z,1.98
2023-05-10T05:09:25.417Z,1.83
2023-05-10T05:10:28.491Z,2.05
2023-05-10T05:11:31.376Z,2.27
2023-05-10T05:12:34.545Z,2.07
2023-05-10T05:13:37.625Z,2.07
2023-05-10T05:14:40.713Z,1.93
2023-05-10T05:15:43.698Z,2.15
2023-05-10T05:16:46.662Z,2.06
2023-05-10T05:17:49.553Z,2.13
2023-05-10T05:18:52.826Z,1.78
2023-05-10T05:19:56.314Z,1.82
2023-05-10T05:20:59.487Z,1.91
2023-05-10T05:22:02.475Z,2.01
2023-05-10T05:23:05.576Z,2.15
2023-05-10T05:24:08.629Z,1.88
2023-05-10T05:25:11.707Z,2.15
2023-05-10T05:26:14.784Z,1.91
2023-05-10T05:27:17.557Z,1.92
2023-05-10T05:28:20.439Z,2.08
2023-05-10T05:29:23.307Z,2.07
2023-05-10T05:30:26.084Z,2.22
2023-05-10T05:31:29.004Z,2.21
2023-05-10T05:32:31.955Z,2.37
2023-05-10T05:33:35.114Z,2.42
2023-05-10T05:34:37.992Z,2.25
2023-05-10T05:35:40.968Z,2.10
2023-05-10T05:36:43.845Z,2.19
2023-05-10T05:37:46.734Z,1.92
2023-05-10T05:38:49.592Z,2.04
2023-05-10T05:39:52.259Z,2.25
2023-05-10T05:40:55.341Z,2.00
2023-05-10T05:41:58.314Z,2.22
2023-05-10T05:43:01.316Z,2.12
2023-05-10T05:44:04.472Z,2.15
2023-05-10T05:45:07.764Z,2.62
2023-05-10T05:46:11.119Z,2.08
2023-05-10T05:47:14.146Z,2.30
2023-05-10T05:48:17.201Z,2.14
2023-05-10T05:49:20.189Z,2.33
2023-05-10T05:50:23.267Z,2.17
2023-05-10T05:51:26.602Z,2.38
2023-05-10T05:52:30.653Z,2.21
2023-05-10T05:53:33.936Z,2.24
2023-05-10T05:54:37.022Z,2.25
2023-05-10T05:55:40.396Z,2.65
2023-05-10T05:56:43.270Z,2.23
2023-05-10T05:57:46.041Z,2.35
2023-05-10T05:58:49.019Z,2.38
2023-05-10T05:59:51.790Z,2.75
2023-05-10T06:00:54.672Z,2.35
2023-05-10T06:01:57.865Z,2.20
2023-05-10T06:03:00.928Z,2.28
2023-05-10T06:04:03.773Z,2.37
2023-05-10T06:05:07.090Z,2.30
2023-05-10T06:06:09.961Z,2.26
2023-05-10T06:07:12.732Z,2.24
2023-05-10T06:08:15.543Z,2.20
2023-05-10T06:09:18.506Z,2.17
2023-05-10T06:10:21.353Z,2.28
2023-05-10T06:11:24.239Z,2.26
2023-05-10T06:12:27.206Z,2.03
2023-05-10T06:13:30.075Z,2.21
2023-05-10T06:14:32.761Z,2.02
2023-05-10T06:15:35.529Z,2.09
2023-05-10T06:16:38.425Z,2.34
2023-05-10T06:17:41.248Z,2.38
2023-05-10T06:18:44.046Z,2.38
2023-05-10T06:19:46.938Z,2.26
2023-05-10T06:20:50.002Z,1.87
2023-05-10T06:21:54.013Z,1.98
2023-05-10T06:22:57.291Z,2.08
2023-05-10T06:24:00.165Z,2.19
2023-05-10T06:25:03.449Z,2.13
2023-05-10T06:26:06.331Z,2.26
2023-05-10T06:27:09.112Z,2.30
2023-05-10T06:28:12.378Z,2.04
2023-05-10T06:29:15.149Z,2.15
2023-05-10T06:30:17.929Z,2.26
2023-05-10T06:31:20.933Z,2.42
2023-05-10T06:32:23.821Z,2.35
2023-05-10T06:33:27.082Z,2.33
2023-05-10T06:34:29.832Z,2.49
2023-05-10T06:35:32.905Z,2.59
2023-05-10T06:36:36.103Z,2.36
2023-05-10T06:37:39.082Z,2.45
2023-05-10T06:38:42.353Z,2.58
2023-05-10T06:39:45.231Z,2.19
2023-05-10T06:40:48.538Z,2.05
2023-05-10T06:41:51.693Z,2.20
2023-05-10T06:42:54.872Z,2.52
2023-05-10T06:43:58.085Z,2.30
2023-05-10T06:45:01.138Z,2.44
2023-05-10T06:46:03.854Z,2.42
2023-05-10T06:47:06.677Z,2.58
2023-05-10T06:48:09.777Z,2.51
2023-05-10T06:49:12.737Z,2.68
2023-05-10T06:50:15.711Z,2.27
2023-05-10T06:51:18.611Z,2.08
2023-05-10T06:52:21.568Z,2.38
2023-05-10T06:53:24.252Z,2.37
2023-05-10T06:54:27.324Z,2.28
2023-05-10T06:55:30.089Z,2.09
2023-05-10T06:56:32.762Z,2.35
2023-05-10T06:57:35.739Z,2.47
2023-05-10T06:58:38.651Z,2.28
2023-05-10T06:59:41.487Z,2.61
2023-05-10T07:00:44.468Z,2.50
2023-05-10T07:01:47.346Z,2.42
2023-05-10T07:02:50.455Z,2.45
2023-05-10T07:03:53.395Z,2.40
2023-05-10T07:04:56.616Z,2.38
2023-05-10T07:05:59.752Z,2.57
2023-05-10T07:07:02.834Z,2.59
2023-05-10T07:08:06.017Z,2.51
2023-05-10T07:09:08.916Z,2.73
2023-05-10T07:10:12.074Z,2.68
2023-05-10T07:11:15.358Z,2.47
2023-05-10T07:12:18.459Z,2.56
2023-05-10T07:13:21.775Z,2.42
2023-05-10T07:14:24.899Z,2.82
2023-05-10T07:15:28.317Z,2.77
2023-05-10T07:16:31.301Z,2.55
2023-05-10T07:17:34.619Z,2.62
2023-05-10T07:18:37.824Z,2.45
2023-05-10T07:19:40.506Z,2.87
2023-05-10T07:20:43.280Z,2.53
2023-05-10T07:21:46.046Z,3.14
2023-05-10T07:22:48.838Z,2.68
2023-05-10T07:23:51.705Z,2.61
2023-05-10T07:24:54.470Z,2.65
2023-05-10T07:25:57.247Z,2.82
2023-05-10T07:26:59.918Z,2.98
2023-05-10T07:28:02.887Z,3.08
2023-05-10T07:29:05.861Z,3.06
2023-05-10T07:30:08.758Z,3.22
2023-05-10T07:31:11.919Z,3.12
2023-05-10T07:32:14.948Z,3.51
2023-05-10T07:33:18.013Z,3.02
2023-05-10T07:34:20.955Z,2.92
2023-05-10T07:35:24.238Z,3.57
2023-05-10T07:36:27.303Z,3.16
2023-05-10T07:37:30.300Z,3.12
2023-05-10T07:38:33.165Z,3.39
2023-05-10T07:39:36.248Z,3.12
2023-05-10T07:40:39.325Z,2.91
2023-05-10T07:41:42.613Z,3.23
2023-05-10T07:42:45.704Z,3.35
2023-05-10T07:43:48.689Z,2.98
2023-05-10T07:44:51.350Z,2.82
2023-05-10T07:45:56.101Z,2.99
2023-05-10T07:46:59.041Z,3.29
2023-05-10T07:48:01.964Z,3.11
2023-05-10T07:49:04.994Z,2.91
2023-05-10T07:50:07.765Z,3.20
2023-05-10T07:51:11.169Z,3.43
2023-05-10T07:52:14.332Z,3.24
2023-05-10T07:53:17.302Z,3.13
2023-05-10T07:54:20.379Z,3.46
2023-05-10T07:55:24.078Z,3.62
2023-05-10T07:56:27.065Z,3.36
2023-05-10T07:57:30.352Z,3.41
2023-05-10T07:58:33.434Z,3.70
2023-05-10T07:59:36.504Z,3.72
2023-05-10T08:00:39.681Z,3.95
2023-05-10T08:01:42.654Z,3.29
2023-05-10T08:02:45.629Z,3.52
2023-05-10T08:03:48.809Z,3.66
2023-05-10T08:04:51.995Z,3.04
2023-05-10T08:05:54.897Z,3.12
2023-05-10T08:06:57.950Z,3.25
2023-05-10T08:08:01.127Z,3.08
2023-05-10T08:09:04.417Z,3.02
2023-05-10T08:10:07.182Z,2.84
2023-05-10T08:11:09.960Z,3.15
2023-05-10T08:12:12.745Z,3.32
2023-05-10T08:13:15.813Z,3.53
2023-05-10T08:14:18.595Z,3.26
2023-05-10T08:15:21.356Z,3.22
2023-05-10T08:16:24.174Z,4.02
2023-05-10T08:17:26.951Z,3.62
2023-05-10T08:18:29.904Z,3.32
2023-05-10T08:19:32.654Z,3.16
2023-05-10T08:20:35.418Z,3.59
2023-05-10T08:21:38.204Z,3.38
2023-05-10T08:22:41.310Z,3.52
2023-05-10T08:23:44.355Z,4.07
2023-05-10T08:24:47.224Z,3.46
2023-05-10T08:25:50.203Z,3.45
2023-05-10T08:26:53.488Z,3.15
2023-05-10T08:27:56.674Z,3.52
2023-05-10T08:28:59.544Z,3.17
2023-05-10T08:30:02.647Z,3.23
2023-05-10T08:31:05.946Z,3.31
2023-05-10T08:32:08.987Z,3.51
2023-05-10T08:33:12.124Z,3.51
2023-05-10T08:34:15.366Z,3.76
2023-05-10T08:35:18.495Z,3.48
2023-05-10T08:36:21.816Z,3.29
2023-05-10T08:37:24.796Z,3.62
2023-05-10T08:38:27.792Z,3.66
2023-05-10T08:39:31.035Z,3.36
2023-05-10T08:40:33.820Z,3.21
2023-05-10T08:41:36.918Z,3.75
2023-05-10T08:42:39.881Z,3.61
2023-05-10T08:43:42.671Z,3.55
2023-05-10T08:44:46.665Z,3.87
2023-05-10T08:45:49.943Z,3.54
2023-05-10T08:46:52.674Z,3.69
2023-05-10T08:47:55.352Z,3.52
2023-05-10T08:48:57.954Z,3.67
2023-05-10T08:50:00.932Z,3.75
2023-05-10T08:51:03.917Z,3.58
2023-05-10T08:52:06.750Z,3.75
2023-05-10T08:53:09.760Z,5.05
2023-05-10T08:54:12.639Z,5.06
2023-05-10T08:55:15.921Z,6.13
2023-05-10T08:56:19.102Z,5.21
2023-05-10T08:57:21.777Z,4.17
2023-05-10T08:58:24.447Z,4.32
2023-05-10T08:59:27.212Z,4.17
2023-05-10T09:00:30.305Z,4.23
2023-05-10T09:01:33.084Z,4.69
2023-05-10T09:02:35.881Z,4.38
2023-05-10T09:03:38.616Z,4.39
2023-05-10T09:04:41.565Z,4.45
2023-05-10T09:05:44.358Z,4.05
2023-05-10T09:06:47.128Z,5.10
2023-05-10T09:07:50.330Z,4.53
2023-05-10T09:08:53.339Z,4.02
2023-05-10T09:09:56.469Z,4.25
2023-05-10T09:10:59.757Z,4.17
2023-05-10T09:12:02.733Z,4.27
2023-05-10T09:13:05.825Z,4.54
2023-05-10T09:14:08.993Z,4.12
2023-05-10T09:15:11.971Z,3.55
2023-05-10T09:17:19.953Z,3.83
2023-05-10T09:18:23.097Z,3.76
2023-05-10T09:19:26.028Z,4.06
2023-05-10T09:20:29.217Z,4.34
2023-05-10T09:21:31.995Z,3.84
2023-05-10T09:22:36.566Z,4.10
2023-05-10T09:23:39.265Z,3.81
2023-05-10T09:24:41.935Z,3.92
2023-05-10T09:25:44.715Z,4.21
2023-05-10T09:26:47.379Z,4.25
2023-05-10T09:27:50.157Z,4.11
2023-05-10T09:28:53.045Z,4.25
2023-05-10T09:29:55.800Z,4.20
2023-05-10T09:30:58.638Z,4.23
2023-05-10T09:32:01.339Z,4.56
2023-05-10T09:33:04.066Z,4.48
2023-05-10T09:34:07.093Z,4.38
2023-05-10T09:35:10.277Z,4.44
2023-05-10T09:36:13.364Z,4.28
2023-05-10T09:37:16.435Z,4.65
2023-05-10T09:38:19.305Z,4.19
2023-05-10T09:39:22.282Z,4.58
2023-05-10T09:40:25.180Z,4.67
2023-05-10T09:41:28.238Z,4.68
2023-05-10T09:42:31.430Z,4.92
2023-05-10T09:43:34.396Z,4.54
2023-05-10T09:44:37.409Z,4.36
2023-05-10T09:45:40.351Z,4.51
2023-05-10T09:46:43.377Z,4.22
2023-05-10T09:47:46.719Z,4.58
2023-05-10T09:48:49.595Z,4.09
2023-05-10T09:49:52.676Z,4.02
2023-05-10T09:50:55.750Z,4.71
2023-05-10T09:51:58.844Z,4.75
2023-05-10T09:53:01.948Z,4.65
2023-05-10T09:54:04.590Z,4.69
2023-05-10T09:55:07.353Z,4.72
2023-05-10T09:56:10.052Z,4.68
2023-05-10T09:57:12.891Z,5.03
2023-05-10T09:58:15.770Z,4.91
2023-05-10T09:59:18.557Z,5.02
2023-05-10T10:00:21.213Z,4.95
2023-05-10T10:01:24.031Z,5.06
2023-05-10T10:02:26.978Z,4.80
2023-05-10T10:03:30.436Z,4.73
2023-05-10T10:04:33.785Z,4.72
2023-05-10T10:05:37.013Z,4.56
2023-05-10T10:06:39.822Z,4.46
2023-05-10T10:07:42.874Z,4.96
2023-05-10T10:08:46.171Z,4.66
2023-05-10T10:09:49.235Z,4.67
2023-05-10T10:10:54.677Z,4.40
2023-05-10T10:11:57.654Z,4.50
2023-05-10T10:13:00.727Z,4.72
2023-05-10T10:14:03.811Z,4.40
2023-05-10T10:15:06.682Z,4.58
2023-05-10T10:16:09.776Z,4.78
2023-05-10T10:17:12.840Z,4.54
2023-05-10T10:18:21.518Z,4.35
2023-05-10T10:19:24.645Z,4.91
2023-05-10T10:20:27.719Z,5.02
2023-05-10T10:21:30.695Z,5.95
2023-05-10T10:22:33.669Z,5.69
2023-05-10T10:23:36.748Z,5.36
2023-05-10T10:24:39.928Z,4.67
2023-05-10T10:25:43.007Z,4.93
2023-05-10T10:26:45.986Z,5.32
2023-05-10T10:27:48.967Z,5.65
2023-05-10T10:28:51.936Z,5.12
2023-05-10T10:29:54.819Z,4.91
2023-05-10T10:30:57.801Z,5.32
2023-05-10T10:32:00.779Z,5.18
2023-05-10T10:33:07.921Z,5.36
2023-05-10T10:34:08.204Z,5.66
2023-05-10T10:35:11.340Z,6.55
2023-05-10T10:36:14.315Z,5.81
2023-05-10T10:37:17.303Z,5.80
2023-05-10T10:38:20.364Z,5.51
2023-05-10T10:39:23.352Z,6.09
2023-05-10T10:40:26.387Z,6.12
2023-05-10T10:41:29.402Z,5.50
2023-05-10T10:42:32.283Z,5.65
2023-05-10T10:43:35.455Z,5.71
2023-05-10T10:44:38.550Z,5.95
2023-05-10T10:45:42.255Z,6.25
2023-05-10T10:46:45.569Z,6.82
2023-05-10T10:47:49.465Z,5.39
2023-05-10T10:48:54.749Z,5.50
2023-05-10T10:49:57.928Z,5.45
2023-05-10T10:51:01.213Z,5.46
2023-05-10T10:52:05.005Z,5.68
2023-05-10T10:53:08.101Z,5.36
2023-05-10T10:54:11.066Z,4.91
2023-05-10T10:55:14.098Z,5.77
2023-05-10T10:56:17.223Z,5.90
2023-05-10T10:57:20.496Z,6.19
2023-05-10T10:58:23.382Z,6.84
2023-05-10T10:59:26.358Z,6.79
2023-05-10T11:00:29.345Z,6.78
2023-05-10T11:01:32.134Z,7.22
2023-05-10T11:02:34.968Z,6.64
2023-05-10T11:03:37.552Z,6.22
2023-05-10T11:04:40.346Z,6.65
2023-05-10T11:05:42.945Z,6.90
2023-05-10T11:06:45.559Z,6.81
2023-05-10T11:07:48.227Z,6.78
2023-05-10T11:08:51.001Z,6.55
2023-05-10T11:09:53.773Z,6.09
2023-05-10T11:10:56.658Z,6.53
2023-05-10T11:11:59.561Z,6.69
2023-05-10T11:13:02.303Z,6.52
2023-05-10T11:14:05.269Z,6.02
2023-05-10T11:15:08.256Z,6.69
2023-05-10T11:16:11.558Z,6.75
2023-05-10T11:17:14.773Z,6.76
2023-05-10T11:18:17.848Z,6.71
2023-05-10T11:19:20.889Z,6.45
2023-05-10T11:20:23.968Z,6.54
2023-05-10T11:21:26.581Z,6.58
2023-05-10T11:22:30.017Z,6.39
2023-05-10T11:23:33.334Z,6.57
2023-05-10T11:24:36.395Z,6.44
2023-05-10T11:25:39.352Z,6.64
2023-05-10T11:26:42.330Z,6.64
2023-05-10T11:27:45.711Z,7.39
2023-05-10T11:28:49.030Z,6.76
2023-05-10T11:29:52.078Z,8.27
2023-05-10T11:30:55.507Z,9.04
2023-05-10T11:31:58.541Z,8.29
2023-05-10T11:33:01.481Z,11.73
2023-05-10T11:34:04.510Z,12.54
2023-05-10T11:35:07.391Z,10.08
2023-05-10T11:36:10.352Z,16.66
2023-05-10T11:37:13.428Z,13.01
2023-05-10T11:38:16.710Z,8.97
2023-05-10T11:39:19.693Z,13.25
2023-05-10T11:40:22.686Z,8.66
2023-05-10T11:41:25.647Z,8.02
2023-05-10T11:42:28.726Z,9.61
2023-05-10T11:43:31.922Z,7.01
2023-05-10T11:44:34.696Z,7.05
2023-05-10T11:45:37.767Z,6.64
2023-05-10T11:46:40.144Z,6.21
2023-05-10T11:47:43.121Z,5.82
2023-05-10T11:48:46.284Z,5.25
2023-05-10T11:49:49.051Z,5.05
2023-05-10T11:50:51.927Z,5.79
2023-05-10T11:51:54.801Z,6.75
2023-05-10T11:52:57.778Z,5.69
2023-05-10T11:54:00.658Z,5.85
2023-05-10T11:55:03.630Z,5.18
2023-05-10T11:56:06.630Z,5.14
2023-05-10T11:57:09.589Z,6.42
2023-05-10T11:58:12.765Z,6.22
2023-05-10T11:59:15.543Z,6.87
2023-05-10T12:00:18.614Z,6.37
2023-05-10T12:01:21.698Z,7.02
2023-05-10T12:02:24.563Z,5.72
2023-05-10T12:03:27.466Z,6.12
2023-05-10T12:04:30.124Z,5.63
2023-05-10T12:05:32.778Z,5.55
2023-05-10T12:06:35.348Z,5.80
2023-05-10T12:07:38.132Z,5.69
2023-05-10T12:08:40.897Z,4.80
2023-05-10T12:09:44.346Z,5.35
2023-05-10T12:10:47.157Z,7.71
2023-05-10T12:11:49.932Z,10.36
2023-05-10T12:12:52.490Z,10.07
2023-05-10T12:13:55.175Z,7.72
2023-05-10T12:14:57.837Z,5.81
2023-05-10T12:16:00.538Z,6.87
2023-05-10T12:17:03.275Z,5.70
2023-05-10T12:18:05.988Z,5.13
2023-05-10T12:19:08.853Z,5.65
2023-05-10T12:20:11.590Z,5.47
2023-05-10T12:21:14.269Z,6.05
2023-05-10T12:22:16.931Z,5.98
2023-05-10T12:23:19.410Z,5.95
2023-05-10T12:24:21.971Z,6.29
2023-05-10T12:25:24.846Z,6.01
2023-05-10T12:26:27.622Z,6.05
2023-05-10T12:27:30.282Z,6.12
2023-05-10T12:28:33.051Z,6.50
2023-05-10T12:29:35.954Z,6.18
2023-05-10T12:30:38.805Z,5.85
2023-05-10T12:31:41.509Z,5.78
2023-05-10T12:32:44.146Z,6.47
2023-05-10T12:33:47.122Z,6.17
2023-05-10T12:34:50.111Z,6.15
2023-05-10T12:35:53.295Z,6.09
2023-05-10T12:36:56.161Z,6.24
2023-05-10T12:37:58.933Z,6.34
2023-05-10T12:39:01.905Z,6.32
2023-05-10T12:40:04.991Z,6.40
2023-05-10T12:41:08.194Z,6.66
2023-05-10T12:42:11.056Z,6.59
2023-05-10T12:43:14.020Z,6.54
2023-05-10T12:44:17.107Z,6.97
2023-05-10T12:45:20.109Z,6.98
2023-05-10T12:46:23.556Z,6.79
2023-05-10T12:47:26.752Z,6.58
2023-05-10T12:48:29.755Z,6.62
2023-05-10T12:49:32.497Z,6.07
2023-05-10T12:50:35.168Z,6.61
2023-05-10T12:51:38.363Z,6.28
2023-05-10T12:52:41.031Z,6.19
2023-05-10T12:53:45.589Z,6.62
2023-05-10T12:54:47.901Z,6.56
2023-05-10T12:55:50.666Z,6.37
2023-05-10T12:56:53.645Z,6.17
2023-05-10T12:57:56.415Z,6.41
2023-05-10T12:58:59.090Z,6.29
2023-05-10T13:00:01.869Z,6.67
2023-05-10T13:01:04.555Z,6.25
2023-05-10T13:02:07.300Z,6.34
2023-05-10T13:03:10.061Z,6.28
2023-05-10T13:04:12.741Z,7.06
2023-05-10T13:05:15.333Z,6.69
2023-05-10T13:06:17.882Z,6.21
2023-05-10T13:07:20.662Z,6.44
2023-05-10T13:08:23.454Z,6.20
2023-05-10T13:09:26.041Z,6.72
2023-05-10T13:10:28.667Z,6.20
2023-05-10T13:11:31.329Z,6.37
2023-05-10T13:12:34.315Z,6.90
2023-05-10T13:13:37.099Z,6.40
2023-05-10T13:14:39.953Z,6.18
2023-05-10T13:15:43.043Z,6.70
2023-05-10T13:16:45.827Z,6.65
2023-05-10T13:17:49.042Z,6.97
2023-05-10T13:18:51.878Z,6.99
2023-05-10T13:19:54.731Z,6.95
2023-05-10T13:20:57.730Z,6.85
2023-05-10T13:22:00.586Z,6.96
2023-05-10T13:23:03.715Z,7.04
2023-05-10T13:24:06.544Z,6.47
2023-05-10T13:25:09.412Z,6.73
2023-05-10T13:26:12.408Z,7.15
2023-05-10T13:27:15.270Z,7.32
2023-05-10T13:28:18.342Z,7.43
2023-05-10T13:29:21.219Z,7.92
2023-05-10T13:30:24.097Z,7.47
2023-05-10T13:31:27.249Z,7.99
2023-05-10T13:32:30.269Z,8.00
2023-05-10T13:33:32.935Z,7.85
2023-05-10T13:34:35.498Z,7.94
2023-05-10T13:35:38.168Z,8.72
2023-05-10T13:36:40.836Z,10.43
2023-05-10T13:37:43.495Z,8.63
2023-05-10T13:38:46.270Z,8.82
2023-05-10T13:39:48.944Z,8.27
2023-05-10T13:40:51.417Z,8.43
2023-05-10T13:41:55.785Z,7.42
2023-05-10T13:42:58.798Z,7.71
2023-05-10T13:44:01.779Z,7.92
2023-05-10T13:45:04.875Z,7.58
2023-05-10T13:46:07.720Z,8.28
2023-05-10T13:47:10.498Z,8.30
2023-05-10T13:48:13.435Z,7.64
2023-05-10T13:49:16.456Z,8.33
2023-05-10T13:50:19.340Z,9.02
2023-05-10T13:51:22.301Z,8.51
2023-05-10T13:52:25.093Z,8.16
2023-05-10T13:53:27.872Z,8.00
2023-05-10T13:54:31.040Z,8.56
2023-05-10T13:55:33.596Z,9.30
2023-05-10T13:56:36.782Z,8.91
2023-05-10T13:57:39.557Z,8.48
2023-05-10T13:58:42.527Z,7.47